aviador You're here:

KAOO Decoded Metar

ALTOONA in PA, USA
Report Time2017-06-29 06:53:00
UTC Time2017-06-29 07:08:31
Flight Rules vfr VFR
WindCalm
Visibility9999 m
Phenomena:N/A
Clouds:N/A
Expected CloudBase > 1,600 ft AGL from Temp-Dew spread
CeilingNone
Temp16°C (ISA +4)
Dew Point12°C (77% RH)
QNH1020 hPa
Density Alt1,919 ft
Elevation1,493 ft
Report Wrong Elevation
Raw Report
METAR KAOO 290653Z AUTO 00000KT 10SM CLR 16/12 A3013 RMK AO2 SLP195
T01610122=

Extra information for KAOO:More info

Metar Taf Metar & Taf Last 4 Metars F.Rules Stats Wind Profile Meteogram Temp Stats Airport Information Weather charts Add Link Nearby VenuesMetar ALERT Operation Metar Decoded Social comments

AIRNAV info for KAOO